Chauvin, Canada
Current Conditions -  °F | °C
As of 11:00 AM on Saturday 25 Oct 2014 (Local Time) from CYLL Reporting Station
Broken Clouds Broken Clouds  
Wind Chill: 36°   Ceiling: 16000
Heat Index: 39°   Visibility: 15mi
Dew Point: 28°   Wind: 5mph
Humidity: 65%   Direction: 320°NW
Pressure: 30"   Gusts: NA
Location:  52.68°N, 110.13°W
Report Text: CYLL 251700Z 32004KT 15SM BKN160 04/M02 A3000 RMK AC7 SLP189
Loading
Personal Weather Stations






























Interactive Weather Map
Tropical Storm Tracking
New forecast layout! Learn more

10-Day Weather Forecast

Advertisements
Track Severe Weather on mobile